Time;durP1;ratioP1;P1;durP2;ratioP2;P2;SDS_P1;SDS_P2;PMS_P1;PMS_P2;Temp;Humidity;BMP_temperature;BMP_pressure;BME280_temperature;BME280_humidity;BME280_pressure;Samples;Min_cycle;Max_cycle;Signal;HPM_P1;HPM_P2
2021/04/29 00:00:14;;;;;;;20.02;9.23;;;;;;;16.45;36.24;100206.38;6327275;22;20317;-79
2021/04/29 00:02:40;;;;;;;18.48;9.18;;;;;;;16.34;36.92;100201.00;6328207;22;20460;-79
2021/04/29 00:05:19;;;;;;;16.17;9.25;;;;;;;16.47;37.40;100198.47;6298077;22;20027;-79
2021/04/29 00:07:52;;;;;;;19.13;8.95;;;;;;;16.34;37.65;100187.19;6296000;22;20072;-79
2021/04/29 00:10:21;;;;;;;15.70;9.38;;;;;;;16.32;37.64;100200.28;6293125;22;20084;-77
2021/04/29 00:12:47;;;;;;;20.65;10.05;;;;;;;16.50;37.57;100189.69;6286649;22;20054;-79
2021/04/29 00:15:15;;;;;;;23.35;9.95;;;;;;;16.22;38.86;100194.00;6284783;22;20082;-79
2021/04/29 00:17:45;;;;;;;14.32;9.77;;;;;;;16.28;39.11;100188.41;6256142;22;20031;-78
2021/04/29 00:20:17;;;;;;;18.17;9.77;;;;;;;16.44;38.97;100178.72;6283579;22;20090;-79
2021/04/29 00:22:44;;;;;;;17.40;9.98;;;;;;;16.26;38.57;100181.66;6284493;22;20041;-79
2021/04/29 00:25:11;;;;;;;18.50;8.80;;;;;;;16.44;39.64;100181.31;6258216;22;20073;-79
2021/04/29 00:27:41;;;;;;;14.02;9.57;;;;;;;16.46;38.51;100173.44;6259545;22;20105;-79
2021/04/29 00:30:10;;;;;;;17.50;9.30;;;;;;;16.36;39.98;100161.97;6284338;22;20037;-78
2021/04/29 00:32:42;;;;;;;20.30;9.52;;;;;;;16.04;41.08;100156.19;6284860;22;20195;-79
2021/04/29 00:35:09;;;;;;;17.85;9.35;;;;;;;16.20;40.35;100154.28;6283036;22;20452;-79
2021/04/29 00:37:39;;;;;;;15.05;9.65;;;;;;;15.78;41.77;100155.19;6283525;22;20031;-79
2021/04/29 00:40:09;;;;;;;18.73;10.27;;;;;;;15.93;41.30;100157.69;6258751;22;20035;-79
2021/04/29 00:42:40;;;;;;;16.98;10.43;;;;;;;16.02;41.45;100155.47;6283722;22;20035;-79
2021/04/29 00:45:11;;;;;;;20.55;11.18;;;;;;;15.89;41.29;100145.81;6282765;22;20195;-79
2021/04/29 00:47:43;;;;;;;21.48;10.15;;;;;;;15.59;42.32;100153.69;6283454;22;20027;-79
2021/04/29 00:50:12;;;;;;;18.63;10.80;;;;;;;15.96;41.28;100152.31;6257580;22;20031;-79
2021/04/29 00:52:40;;;;;;;18.38;11.32;;;;;;;15.65;43.21;100148.16;6283457;22;20031;-79
2021/04/29 00:55:07;;;;;;;22.58;11.80;;;;;;;15.74;42.50;100145.94;6258831;22;20134;-79
2021/04/29 00:57:34;;;;;;;16.35;10.73;;;;;;;16.12;41.86;100148.75;6310945;22;20088;-79
2021/04/29 01:00:04;;;;;;;20.65;11.63;;;;;;;16.03;42.23;100144.97;6284211;22;20058;-78
2021/04/29 01:02:31;;;;;;;17.55;10.55;;;;;;;15.65;43.05;100145.56;6284405;22;20082;-78
2021/04/29 01:05:09;;;;;;;17.73;12.18;;;;;;;15.93;42.61;100146.47;6283663;22;20054;-78
2021/04/29 01:07:46;;;;;;;20.02;10.95;;;;;;;15.54;44.05;100147.94;6310389;22;20023;-78
2021/04/29 01:10:38;;;;;;;18.55;10.98;;;;;;;15.85;43.07;100154.72;6284341;22;20027;-78
2021/04/29 01:13:06;;;;;;;17.25;10.75;;;;;;;15.81;42.48;100155.84;6283012;22;20083;-78
2021/04/29 01:15:35;;;;;;;23.08;11.95;;;;;;;15.81;42.48;100155.84;6282579;22;20042;-79
2021/04/29 01:18:02;;;;;;;20.35;11.48;;;;;;;15.81;42.48;100155.84;6283639;22;20070;-78
2021/04/29 01:20:44;;;;;;;20.67;11.63;;;;;;;15.81;42.48;100155.84;6255777;22;20027;-78
2021/04/29 01:23:32;;;;;;;16.27;10.82;;;;;;;-65.27;42.48;100155.84;6309707;22;20036;-79
2021/04/29 01:26:03;;;;;;;16.40;11.02;;;;;;;15.81;42.48;100155.84;6282422;22;20080;-78
2021/04/29 01:28:30;;;;;;;17.85;12.20;;;;;;;15.81;42.48;100155.84;6282622;22;20324;-79
2021/04/29 01:30:58;;;;;;;17.60;12.18;;;;;;;15.81;42.48;100155.84;6309374;22;20120;-79
2021/04/29 01:33:24;;;;;;;16.63;10.95;;;;;;;15.81;42.48;100155.84;6283658;22;20176;-79
2021/04/29 01:35:58;;;;;;;15.65;11.80;;;;;;;15.81;42.48;100155.84;6285211;22;20110;-79
2021/04/29 01:38:24;;;;;;;19.92;12.23;;;;;;;15.81;42.48;100155.84;6309525;22;20102;-79
2021/04/29 01:40:51;;;;;;;16.17;12.00;;;;;;;15.81;42.48;100155.84;6282263;22;20046;-79
2021/04/29 01:43:17;;;;;;;26.45;13.38;;;;;;;15.81;42.48;100155.84;6310053;22;20025;-79
2021/04/29 01:45:44;;;;;;;19.42;12.07;;;;;;;15.81;42.48;100155.84;6284388;22;20090;-79
2021/04/29 01:48:12;;;;;;;20.23;12.52;;;;;;;15.81;42.48;100155.84;6282312;22;20019;-78
2021/04/29 01:50:39;;;;;;;19.23;12.60;;;;;;;15.81;42.48;100155.84;6307297;22;20054;-78
2021/04/29 01:53:05;;;;;;;19.80;12.20;;;;;;;15.81;42.48;100155.84;6283110;22;20090;-78
2021/04/29 01:55:33;;;;;;;17.67;12.65;;;;;;;15.81;42.48;100155.84;6282022;22;20015;-78
2021/04/29 01:58:00;;;;;;;19.25;11.90;;;;;;;15.81;42.48;100155.84;6255941;22;20299;-78
2021/04/29 02:00:26;;;;;;;23.10;13.00;;;;;;;15.81;42.48;100155.84;6280215;22;20077;-78
2021/04/29 02:02:53;;;;;;;19.48;12.88;;;;;;;15.81;42.48;100155.84;6280556;22;20038;-77
2021/04/29 02:05:19;;;;;;;23.58;12.77;;;;;;;15.81;42.48;100155.84;6279934;22;20058;-77
2021/04/29 02:07:52;;;;;;;19.58;12.77;;;;;;;15.81;42.48;100155.84;6282552;22;20024;-78
2021/04/29 02:10:18;;;;;;;17.42;12.13;;;;;;;15.81;42.48;100155.84;6280596;22;20046;-77
2021/04/29 02:12:52;;;;;;;18.70;12.40;;;;;;;15.81;42.48;100155.84;6256314;22;20058;-78
2021/04/29 02:15:19;;;;;;;23.98;13.65;;;;;;;15.81;42.48;100155.84;6281508;22;20038;-78
2021/04/29 02:17:53;;;;;;;21.88;12.77;;;;;;;15.81;42.48;100155.84;6281864;22;20023;-78
2021/04/29 02:20:22;;;;;;;19.65;12.07;;;;;;;15.81;42.48;100155.84;6305871;22;20023;-78
2021/04/29 02:22:51;;;;;;;19.42;13.07;;;;;;;15.81;42.48;100155.84;6281173;22;20033;-78
2021/04/29 02:25:28;;;;;;;24.77;12.00;;;;;;;15.81;42.48;100155.84;6281804;22;20110;-77
2021/04/29 02:27:56;;;;;;;17.27;12.98;;;;;;;-143.98;100.00;68091.63;6257703;22;20023;-79
2021/04/29 02:30:22;;;;;;;23.08;14.48;;;;;;;-143.98;100.00;68091.63;6282151;22;20118;-78
2021/04/29 02:32:51;;;;;;;23.85;13.88;;;;;;;-143.98;100.00;68091.63;6302718;22;20042;-78
2021/04/29 02:35:18;;;;;;;21.77;13.48;;;;;;;-143.98;100.00;68091.63;6277353;22;20024;-78
2021/04/29 02:37:48;;;;;;;25.63;14.25;;;;;;;-143.98;100.00;68091.63;6277101;22;20110;-79
2021/04/29 02:40:15;;;;;;;17.92;13.02;;;;;;;-143.98;100.00;68091.63;6250508;22;20016;-78
2021/04/29 02:43:01;;;;;;;26.77;15.75;;;;;;;-143.98;100.00;68091.63;6275805;22;20031;-78
2021/04/29 02:45:28;;;;;;;19.45;13.23;;;;;;;-143.98;100.00;68091.63;6277244;22;20023;-78
2021/04/29 02:47:55;;;;;;;21.23;13.40;;;;;;;-143.98;100.00;68091.63;6274984;22;20308;-78
2021/04/29 02:50:25;;;;;;;20.55;12.88;;;;;;;-143.98;100.00;68091.63;6250730;22;20160;-77
2021/04/29 02:52:52;;;;;;;17.90;13.02;;;;;;;-143.98;100.00;68091.63;6274254;22;20031;-78
2021/04/29 02:55:21;;;;;;;19.20;13.02;;;;;;;-143.98;100.00;68091.63;6277707;22;20037;-77
2021/04/29 02:57:48;;;;;;;18.63;12.52;;;;;;;-143.98;100.00;68091.63;6274357;22;20084;-78
2021/04/29 03:00:17;;;;;;;19.73;12.88;;;;;;;-143.98;100.00;68091.63;6247884;22;20038;-77
2021/04/29 03:02:43;;;;;;;20.50;13.13;;;;;;;-143.98;100.00;68091.63;6275841;22;20106;-77
2021/04/29 03:05:13;;;;;;;21.55;13.82;;;;;;;-143.98;100.00;68091.63;6276038;22;20035;-78
2021/04/29 03:07:40;;;;;;;23.25;14.00;;;;;;;-143.98;100.00;68091.63;6277263;22;20089;-77
2021/04/29 03:10:08;;;;;;;22.83;12.68;;;;;;;-143.98;100.00;68091.63;6276936;22;20385;-78
2021/04/29 03:12:35;;;;;;;25.58;14.85;;;;;;;-143.98;100.00;68091.63;6251149;22;20101;-77
2021/04/29 03:15:02;;;;;;;17.38;12.52;;;;;;;-143.98;100.00;68091.63;6275153;22;20024;-77
2021/04/29 03:17:29;;;;;;;22.55;13.75;;;;;;;-143.98;100.00;68091.63;6284165;22;20270;-79
2021/04/29 03:19:55;;;;;;;21.58;13.20;;;;;;;-143.98;100.00;68091.63;6287148;22;20027;-78
2021/04/29 03:22:25;;;;;;;19.42;12.27;;;;;;;-143.98;100.00;68091.63;6276733;22;20128;-79
2021/04/29 03:24:55;;;;;;;19.50;13.55;;;;;;;-143.98;100.00;68091.63;6278074;22;20443;-79
2021/04/29 03:27:23;;;;;;;21.02;13.85;;;;;;;-143.98;100.00;68091.63;6250750;22;20087;-79
2021/04/29 03:29:51;;;;;;;19.23;13.55;;;;;;;-143.98;100.00;68091.63;6249403;22;20028;-78
2021/04/29 03:32:18;;;;;;;22.65;13.82;;;;;;;-143.98;100.00;68091.63;6276272;22;20038;-78
2021/04/29 03:34:46;;;;;;;19.45;13.95;;;;;;;-143.98;100.00;68091.63;6306340;22;20024;-78
2021/04/29 03:37:15;;;;;;;17.33;13.18;;;;;;;-143.98;100.00;68091.63;6278777;22;20332;-78
2021/04/29 03:39:42;;;;;;;21.23;13.55;;;;;;;-143.98;100.00;68091.63;6278436;22;20557;-77
2021/04/29 03:42:09;;;;;;;21.85;13.05;;;;;;;-143.98;100.00;68091.63;6278593;22;20275;-78
2021/04/29 03:44:37;;;;;;;22.42;13.77;;;;;;;-143.98;100.00;68091.63;6281010;22;20075;-79
2021/04/29 03:47:04;;;;;;;20.38;13.38;;;;;;;-143.98;100.00;68091.63;6252230;22;20128;-78
2021/04/29 03:49:31;;;;;;;18.88;13.23;;;;;;;-143.98;100.00;68091.63;6281442;22;20421;-79
2021/04/29 03:51:57;;;;;;;19.25;14.38;;;;;;;-143.98;100.00;68091.63;6284301;22;20038;-78
2021/04/29 03:54:27;;;;;;;17.42;12.98;;;;;;;-143.98;100.00;68091.63;6309040;22;20080;-78
2021/04/29 03:56:53;;;;;;;24.92;15.63;;;;;;;-143.98;100.00;68091.63;6257539;22;20023;-79
2021/04/29 03:59:20;;;;;;;19.98;13.93;;;;;;;-143.98;100.00;68091.63;6278182;22;20336;-80
2021/04/29 04:01:46;;;;;;;23.35;14.73;;;;;;;-143.98;100.00;68091.63;6279715;22;20027;-79
2021/04/29 04:04:13;;;;;;;23.92;15.50;;;;;;;-143.98;100.00;68091.63;6281051;22;20038;-79
2021/04/29 04:06:39;;;;;;;20.00;13.95;;;;;;;-143.98;100.00;68091.63;6280469;22;20081;-79
2021/04/29 04:09:06;;;;;;;22.30;14.77;;;;;;;-143.98;100.00;68091.63;6282568;22;20183;-79
2021/04/29 04:11:32;;;;;;;21.45;14.93;;;;;;;-143.98;100.00;68091.63;6311661;22;20027;-79
2021/04/29 04:13:59;;;;;;;20.55;14.15;;;;;;;-143.98;100.00;68091.63;6260660;22;20051;-79
2021/04/29 04:16:26;;;;;;;22.70;15.18;;;;;;;-143.98;100.00;68091.63;6281759;22;20065;-78
2021/04/29 04:18:53;;;;;;;21.88;15.05;;;;;;;-143.98;100.00;68091.63;6307986;22;20393;-78
2021/04/29 04:21:19;;;;;;;19.70;14.68;;;;;;;-143.98;100.00;68091.63;6281964;22;20038;-78
2021/04/29 04:23:46;;;;;;;26.38;16.52;;;;;;;-143.98;100.00;68091.63;6309351;22;20034;-78
2021/04/29 04:26:12;;;;;;;22.80;15.95;;;;;;;-143.98;100.00;68091.63;6307377;22;20031;-79
2021/04/29 04:28:38;;;;;;;19.33;14.52;;;;;;;-143.98;100.00;68091.63;6282214;22;20293;-79
2021/04/29 04:31:08;;;;;;;19.98;15.10;;;;;;;-143.98;100.00;68091.63;6307192;22;20028;-79
2021/04/29 04:33:34;;;;;;;22.80;15.00;;;;;;;-143.98;100.00;68091.63;6307668;22;20027;-78
2021/04/29 04:36:01;;;;;;;24.38;14.43;;;;;;;-143.98;100.00;68091.63;6282686;22;20024;-80
2021/04/29 04:38:27;;;;;;;19.80;15.13;;;;;;;-143.98;100.00;68091.63;6282361;22;20015;-80
2021/04/29 04:40:54;;;;;;;22.23;15.30;;;;;;;-143.98;100.00;68091.63;6280146;22;20023;-79
2021/04/29 04:43:21;;;;;;;20.70;14.40;;;;;;;-143.98;100.00;68091.63;6278157;22;20053;-79
2021/04/29 04:45:47;;;;;;;18.25;13.55;;;;;;;-143.98;100.00;68091.63;6278492;22;20058;-79
2021/04/29 04:48:13;;;;;;;21.27;14.90;;;;;;;-143.98;100.00;68091.63;6280690;22;20027;-79
2021/04/29 04:50:40;;;;;;;22.60;15.10;;;;;;;-143.98;100.00;68091.63;6279970;22;20034;-79
2021/04/29 04:53:06;;;;;;;20.45;14.23;;;;;;;-143.98;100.00;68091.63;6278315;22;20071;-79
2021/04/29 04:55:41;;;;;;;19.23;12.68;;;;;;;-143.98;100.00;68091.63;6281609;22;20094;-80
2021/04/29 04:58:08;;;;;;;20.17;13.20;;;;;;;-143.98;100.00;68091.63;6322604;22;20011;-79
2021/04/29 05:00:50;;;;;;;21.58;13.73;;;;;;;-143.98;100.00;68091.63;6298574;22;20023;-78
2021/04/29 05:03:31;;;;;;;;;;;;;;;-143.98;100.00;68091.63;6301455;22;20011;-79
2021/04/29 05:05:58;;;;;;;38.63;16.85;;;;;;;-143.98;100.00;68091.63;6264672;22;19919;-79
2021/04/29 05:08:25;;;;;;;36.47;17.70;;;;;;;-143.98;100.00;68091.63;6283352;22;20027;-78
2021/04/29 05:10:51;;;;;;;35.88;17.27;;;;;;;-143.98;100.00;68091.63;6255098;22;20038;-78
2021/04/29 05:13:18;;;;;;;31.63;17.67;;;;;;;-143.98;100.00;68091.63;6277768;22;20027;-78
2021/04/29 05:15:44;;;;;;;25.75;15.30;;;;;;;-143.98;100.00;68091.63;6277506;22;20062;-78
2021/04/29 05:18:11;;;;;;;34.50;17.05;;;;;;;-143.98;100.00;68091.63;6276782;22;20035;-80
2021/04/29 05:20:38;;;;;;;28.88;16.52;;;;;;;-143.98;100.00;68091.63;6307495;22;20029;-79
2021/04/29 05:23:04;;;;;;;25.30;15.50;;;;;;;-143.98;100.00;68091.63;6273818;22;20030;-78
2021/04/29 05:25:31;;;;;;;20.17;14.52;;;;;;;-143.98;100.00;68091.63;6276436;22;20027;-78
2021/04/29 05:28:03;;;;;;;19.38;13.93;;;;;;;-143.98;100.00;68091.63;6271977;22;20161;-79
2021/04/29 05:30:29;;;;;;;23.55;13.88;;;;;;;-143.98;100.00;68091.63;6275857;22;20279;-79
2021/04/29 05:32:56;;;;;;;20.10;13.60;;;;;;;-143.98;100.00;68091.63;6274455;22;20061;-79
2021/04/29 05:35:22;;;;;;;20.73;14.23;;;;;;;-143.98;100.00;68091.63;6302107;22;20137;-79
2021/04/29 05:37:48;;;;;;;21.15;14.68;;;;;;;-143.98;100.00;68091.63;6278616;22;20033;-78
2021/04/29 05:40:18;;;;;;;20.38;15.45;;;;;;;-143.98;100.00;68091.63;6281369;22;20023;-80
2021/04/29 05:42:46;;;;;;;25.88;15.30;;;;;;;-143.98;100.00;68091.63;6256780;22;20085;-79
2021/04/29 05:45:13;;;;;;;22.33;15.63;;;;;;;-143.98;100.00;68091.63;6272928;22;20050;-78
2021/04/29 05:47:40;;;;;;;19.00;14.52;;;;;;;-143.98;100.00;68091.63;6250265;22;20505;-80
2021/04/29 05:50:08;;;;;;;19.25;15.18;;;;;;;-143.98;100.00;68091.63;6273118;22;20222;-78
2021/04/29 05:52:34;;;;;;;23.50;15.50;;;;;;;-143.98;100.00;68091.63;6274216;22;20239;-79
2021/04/29 05:55:04;;;;;;;23.80;15.70;;;;;;;-143.98;100.00;68091.63;6275403;22;20015;-78
2021/04/29 05:57:31;;;;;;;21.77;15.10;;;;;;;-143.98;100.00;68091.63;6274891;22;20034;-79
2021/04/29 05:59:57;;;;;;;20.48;15.35;;;;;;;-143.98;100.00;68091.63;6299278;22;20429;-79
2021/04/29 06:02:24;;;;;;;22.60;14.90;;;;;;;-143.98;100.00;68091.63;6248076;22;20343;-79
2021/04/29 06:04:54;;;;;;;28.15;16.33;;;;;;;-143.98;100.00;68091.63;6270895;22;20405;-78
2021/04/29 06:07:20;;;;;;;30.10;17.27;;;;;;;-143.98;100.00;68091.63;6271836;22;20027;-79
2021/04/29 06:09:46;;;;;;;27.60;15.52;;;;;;;-143.98;100.00;68091.63;6270047;22;20405;-79
2021/04/29 06:12:20;;;;;;;21.20;16.00;;;;;;;-143.98;100.00;68091.63;6269374;22;20371;-78
2021/04/29 06:14:47;;;;;;;21.92;16.15;;;;;;;-143.98;100.00;68091.63;6274224;22;20034;-79
2021/04/29 06:17:13;;;;;;;21.83;15.93;;;;;;;-143.98;100.00;68091.63;6249649;22;20139;-80
2021/04/29 06:19:40;;;;;;;23.08;15.98;;;;;;;-143.98;100.00;68091.63;6278015;22;20238;-79
2021/04/29 06:22:06;;;;;;;20.63;14.68;;;;;;;-143.98;100.00;68091.63;6249655;22;20015;-79
2021/04/29 06:24:33;;;;;;;20.90;15.15;;;;;;;-143.98;100.00;68091.63;6275552;22;20079;-78
2021/04/29 06:27:02;;;;;;;27.35;16.40;;;;;;;-143.98;100.00;68091.63;6303217;22;20133;-78
2021/04/29 06:29:30;;;;;;;23.20;15.68;;;;;;;-143.98;100.00;68091.63;6282235;22;20074;-78
2021/04/29 06:31:57;;;;;;;21.38;15.43;;;;;;;-143.98;100.00;68091.63;6280859;22;20037;-78
2021/04/29 06:34:23;;;;;;;20.05;16.33;;;;;;;-143.98;100.00;68091.63;6247484;22;20099;-79
2021/04/29 06:36:49;;;;;;;19.92;15.07;;;;;;;-143.98;100.00;68091.63;6272053;22;20042;-78
2021/04/29 06:39:19;;;;;;;23.05;15.60;;;;;;;-143.98;100.00;68091.63;6270689;22;20145;-81
2021/04/29 06:41:48;;;;;;;24.40;15.95;;;;;;;-143.98;100.00;68091.63;6245393;22;20092;-78
2021/04/29 06:44:15;;;;;;;18.88;13.60;;;;;;;-143.98;100.00;68091.63;6272274;22;20051;-79
2021/04/29 06:46:43;;;;;;;19.35;14.75;;;;;;;-143.98;100.00;68091.63;6297584;22;20025;-79
2021/04/29 06:49:16;;;;;;;19.85;14.10;;;;;;;-143.98;100.00;68091.63;6275448;22;20027;-79
2021/04/29 06:51:42;;;;;;;18.10;14.38;;;;;;;-143.98;100.00;68091.63;6275674;22;20115;-79
2021/04/29 06:54:14;;;;;;;20.17;15.00;;;;;;;-143.98;100.00;68091.63;6276896;22;20262;-80
2021/04/29 06:56:41;;;;;;;20.80;14.45;;;;;;;-143.98;100.00;68091.63;6275727;22;20304;-80
2021/04/29 06:59:13;;;;;;;23.95;15.38;;;;;;;-143.98;100.00;68091.63;6249585;22;20023;-78
2021/04/29 07:01:40;;;;;;;19.48;15.60;;;;;;;-143.98;100.00;68091.63;6270367;22;20071;-78
2021/04/29 07:04:13;;;;;;;20.50;15.27;;;;;;;-143.98;100.00;68091.63;6275978;22;20027;-79
2021/04/29 07:06:43;;;;;;;21.83;15.52;;;;;;;-143.98;100.00;68091.63;6250210;22;20034;-78
2021/04/29 07:09:10;;;;;;;18.20;14.63;;;;;;;-143.98;100.00;68091.63;6274370;22;20035;-79
2021/04/29 07:11:40;;;;;;;20.48;14.20;;;;;;;-143.98;100.00;68091.63;6273689;22;20312;-78
2021/04/29 07:14:09;;;;;;;21.58;15.10;;;;;;;-143.98;100.00;68091.63;6249927;22;20276;-78
2021/04/29 07:16:42;;;;;;;19.05;14.13;;;;;;;-143.98;100.00;68091.63;6272832;22;20376;-79
2021/04/29 07:19:08;;;;;;;21.30;14.45;;;;;;;-143.98;100.00;68091.63;6270916;22;20034;-80
2021/04/29 07:21:38;;;;;;;15.45;12.95;;;;;;;-143.98;100.00;68091.63;6273313;22;20023;-80
2021/04/29 07:24:08;;;;;;;18.08;13.30;;;;;;;-143.98;100.00;68091.63;6271682;22;20023;-79
2021/04/29 07:26:38;;;;;;;22.60;15.02;;;;;;;-143.98;100.00;68091.63;6274363;22;20451;-79
2021/04/29 07:29:10;;;;;;;20.50;15.40;;;;;;;-143.98;100.00;68091.63;6249288;22;20331;-79
2021/04/29 07:31:39;;;;;;;21.20;15.60;;;;;;;-143.98;100.00;68091.63;6272856;22;20020;-80
2021/04/29 07:34:16;;;;;;;23.83;15.45;;;;;;;-143.98;100.00;68091.63;6301183;22;20283;-79
2021/04/29 07:36:43;;;;;;;21.52;15.95;;;;;;;-143.98;100.00;68091.63;6281059;22;20204;-80
2021/04/29 07:39:11;;;;;;;23.23;15.32;;;;;;;-143.98;100.00;68091.63;6254228;22;20027;-79
2021/04/29 07:41:38;;;;;;;21.27;16.50;;;;;;;-143.98;100.00;68091.63;6276234;22;20075;-78
2021/04/29 07:44:06;;;;;;;24.42;15.93;;;;;;;-143.98;100.00;68091.63;6274731;22;20023;-80
2021/04/29 07:46:36;;;;;;;26.13;16.35;;;;;;;-143.98;100.00;68091.63;6275540;22;20035;-78
2021/04/29 07:49:04;;;;;;;26.38;16.67;;;;;;;-143.98;100.00;68091.63;6273138;22;20019;-79
2021/04/29 07:51:35;;;;;;;22.52;17.17;;;;;;;-143.98;100.00;68091.63;6272531;22;20110;-79
2021/04/29 07:54:13;;;;;;;26.60;17.05;;;;;;;-143.98;100.00;68091.63;6275892;22;20046;-78
2021/04/29 07:56:40;;;;;;;20.63;16.48;;;;;;;-143.98;100.00;68091.63;6278319;22;20472;-79
2021/04/29 07:59:07;;;;;;;25.95;18.98;;;;;;;-143.98;100.00;68091.63;6253942;22;20207;-82
2021/04/29 08:01:53;;;;;;;26.52;18.23;;;;;;;-143.98;100.00;68091.63;6278079;22;20094;-81
2021/04/29 08:04:34;;;;;;;23.88;17.90;;;;;;;-143.98;100.00;68091.63;6261499;22;20034;-82
2021/04/29 08:07:05;;;;;;;26.55;19.60;;;;;;;-143.98;100.00;68091.63;6281364;22;20384;-83
2021/04/29 08:09:33;;;;;;;28.83;20.25;;;;;;;-143.98;100.00;68091.63;6286915;22;20023;-85
2021/04/29 08:12:00;;;;;;;31.50;22.77;;;;;;;-143.98;100.00;68091.63;6289052;22;20034;-84
2021/04/29 08:14:37;;;;;;;35.40;26.20;;;;;;;-143.98;100.00;68091.63;6263727;22;20027;-85
2021/04/29 08:17:43;;;;;;;40.80;28.48;;;;;;;-143.98;100.00;68091.63;6288983;22;20100;-84
2021/04/29 08:20:59;;;;;;;38.70;26.15;;;;;;;-143.98;100.00;68091.63;6290905;22;20023;-85
2021/04/29 08:32:11;;;;;;;40.58;28.92;;;;;;;-143.98;100.00;68091.63;6200294;23;20048;-86
2021/04/29 08:34:53;;;;;;;39.70;29.40;;;;;;;-143.98;100.00;68091.63;6296722;22;20021;-85
2021/04/29 08:37:20;;;;;;;46.15;32.10;;;;;;;-143.98;100.00;68091.63;6299273;22;20057;-84
2021/04/29 08:39:58;;;;;;;44.55;32.35;;;;;;;-143.98;100.00;68091.63;6291051;22;20027;-85
2021/04/29 08:43:08;;;;;;;45.75;33.13;;;;;;;-143.98;100.00;68091.63;6263022;22;20058;-85
2021/04/29 08:45:54;;;;;;;48.17;32.70;;;;;;;-143.98;100.00;68091.63;6259134;22;20269;-85
2021/04/29 08:48:26;;;;;;;42.28;29.58;;;;;;;-143.98;100.00;68091.63;6262353;22;20613;-84
2021/04/29 08:51:01;;;;;;;42.10;29.90;;;;;;;-143.98;100.00;68091.63;6290246;22;20055;-86
2021/04/29 08:53:36;;;;;;;37.28;29.35;;;;;;;-143.98;100.00;68091.63;6286200;22;20058;-84
2021/04/29 08:56:26;;;;;;;43.13;31.40;;;;;;;-143.98;100.00;68091.63;6284005;22;20035;-84
2021/04/29 08:59:00;;;;;;;43.03;31.27;;;;;;;-143.98;100.00;68091.63;6259078;22;20027;-87
2021/04/29 09:01:38;;;;;;;39.53;30.17;;;;;;;-143.98;100.00;68091.63;6290663;22;20028;-83
2021/04/29 09:04:15;;;;;;;42.10;30.23;;;;;;;-143.98;100.00;68091.63;6259844;22;20024;-84
2021/04/29 09:06:46;;;;;;;42.95;30.33;;;;;;;-143.98;100.00;68091.63;6264960;22;20171;-84
2021/04/29 09:09:23;;;;;;;38.53;28.92;;;;;;;-143.98;100.00;68091.63;6260414;22;20012;-85
2021/04/29 09:11:56;;;;;;;40.03;28.17;;;;;;;-143.98;100.00;68091.63;6290770;22;20034;-84
2021/04/29 09:14:45;;;;;;;43.53;30.92;;;;;;;-143.98;100.00;68091.63;6265132;22;20054;-85
2021/04/29 09:17:28;;;;;;;43.17;33.47;;;;;;;-143.98;100.00;68091.63;6286652;22;20369;-83
2021/04/29 09:20:12;;;;;;;41.05;30.17;;;;;;;-143.98;100.00;68091.63;6247336;22;20075;-84
2021/04/29 09:23:18;;;;;;;44.30;31.92;;;;;;;-143.98;100.00;68091.63;6261492;22;20030;-87
2021/04/29 09:25:53;;;;;;;38.87;28.57;;;;;;;-143.98;100.00;68091.63;6265002;22;20054;-86
2021/04/29 09:28:20;;;;;;;39.80;29.90;;;;;;;-143.98;100.00;68091.63;6312569;22;20312;-86
2021/04/29 09:30:59;;;;;;;43.10;30.60;;;;;;;-143.98;100.00;68091.63;6288986;22;20027;-85
2021/04/29 09:34:10;;;;;;;34.75;26.38;;;;;;;-143.98;100.00;68091.63;6290118;22;20020;-86
2021/04/29 09:36:50;;;;;;;36.50;28.05;;;;;;;-143.98;100.00;68091.63;6298211;22;20030;-86
2021/04/29 09:39:19;;;;;;;45.13;28.50;;;;;;;-143.98;100.00;68091.63;6273247;22;20068;-86
2021/04/29 09:42:02;;;;;;;37.20;29.20;;;;;;;-143.98;100.00;68091.63;6297514;22;20043;-87
2021/04/29 09:44:28;;;;;;;39.88;29.58;;;;;;;-143.98;100.00;68091.63;6292411;22;20098;-86
2021/04/29 09:47:01;;;;;;;40.55;29.38;;;;;;;-143.98;100.00;68091.63;6286805;22;20159;-86
2021/04/29 09:49:35;;;;;;;41.53;29.55;;;;;;;-143.98;100.00;68091.63;6287678;22;20050;-85
2021/04/29 09:52:04;;;;;;;39.10;30.13;;;;;;;-143.98;100.00;68091.63;6286254;22;20077;-85
2021/04/29 09:54:33;;;;;;;45.05;32.75;;;;;;;-143.98;100.00;68091.63;6259013;22;20023;-85
2021/04/29 09:57:01;;;;;;;44.50;32.80;;;;;;;-143.98;100.00;68091.63;6293613;22;20161;-85
2021/04/29 09:59:31;;;;;;;44.00;32.92;;;;;;;-143.98;100.00;68091.63;6295973;22;20023;-85
2021/04/29 10:02:05;;;;;;;43.85;31.90;;;;;;;-143.98;100.00;68091.63;6294877;22;20047;-86
2021/04/29 10:04:54;;;;;;;44.45;32.92;;;;;;;-143.98;100.00;68091.63;6295561;22;20011;-86
2021/04/29 10:07:25;;;;;;;45.92;32.10;;;;;;;-143.98;100.00;68091.63;6264944;22;20043;-86
2021/04/29 10:09:55;;;;;;;38.65;30.10;;;;;;;-143.98;100.00;68091.63;6287746;22;20035;-85
2021/04/29 10:12:24;;;;;;;42.03;31.08;;;;;;;-143.98;100.00;68091.63;6284607;22;20055;-84
2021/04/29 10:15:01;;;;;;;43.35;31.42;;;;;;;-143.98;100.00;68091.63;6282927;22;20180;-85
2021/04/29 10:17:33;;;;;;;42.05;32.40;;;;;;;-143.98;100.00;68091.63;6285046;22;20024;-86
2021/04/29 10:20:35;;;;;;;;;;;;;;;;;;;;;
2021/04/29 10:27:08;;;;;;;40.58;30.58;;;;;;;-143.98;100.00;68091.63;6231106;22;20039;-86
2021/04/29 10:29:35;;;;;;;44.03;32.15;;;;;;;-143.98;100.00;68091.63;6262301;22;20042;-86
2021/04/29 10:32:27;;;;;;;38.78;29.13;;;;;;;-143.98;100.00;68091.63;6285969;22;20023;-87
2021/04/29 10:42:50;;;;;;;34.88;26.00;;;;;;;-143.98;100.00;68091.63;6077755;23;20030;-85
2021/04/29 10:45:17;;;;;;;39.20;29.17;;;;;;;-143.98;100.00;68091.63;6120302;22;20036;-86
2021/04/29 10:47:47;;;;;;;39.03;27.33;;;;;;;-143.98;100.00;68091.63;6289127;22;20108;-85
2021/04/29 10:50:19;;;;;;;36.15;27.50;;;;;;;-143.98;100.00;68091.63;6289657;22;20027;-85
2021/04/29 10:53:17;;;;;;;34.63;26.20;;;;;;;-143.98;100.00;68091.63;6299491;22;20019;-89
2021/04/29 10:59:54;;;;;;;32.45;25.05;;;;;;;-143.98;100.00;68091.63;6319284;22;20076;-87
2021/04/29 11:02:21;;;;;;;36.70;28.83;;;;;;;-143.98;100.00;68091.63;6292172;22;20133;-87
2021/04/29 11:04:51;;;;;;;32.30;26.48;;;;;;;-143.98;100.00;68091.63;6290647;22;20068;-88
2021/04/29 11:07:20;;;;;;;37.05;28.02;;;;;;;-143.98;100.00;68091.63;6294230;22;20110;-88
2021/04/29 11:09:59;;;;;;;31.67;26.00;;;;;;;-143.98;100.00;68091.63;6266949;22;20050;-87
2021/04/29 11:13:07;;;;;;;27.15;22.55;;;;;;;-143.98;100.00;68091.63;6261423;22;20038;-84
2021/04/29 11:15:38;;;;;;;26.13;21.00;;;;;;;-143.98;100.00;68091.63;6281524;22;20235;-84
2021/04/29 11:18:20;;;;;;;36.00;25.83;;;;;;;-143.98;100.00;68091.63;6281206;22;20277;-84
2021/04/29 11:21:08;;;;;;;29.63;22.90;;;;;;;-143.98;100.00;68091.63;6283351;22;20234;-83
2021/04/29 11:23:40;;;;;;;33.33;24.17;;;;;;;-143.98;100.00;68091.63;6286076;22;20090;-83
2021/04/29 11:26:10;;;;;;;28.65;21.75;;;;;;;-143.98;100.00;68091.63;6320636;22;20019;-83
2021/04/29 11:28:51;;;;;;;30.27;23.50;;;;;;;-143.98;100.00;68091.63;6321898;22;20096;-83
2021/04/29 11:31:18;;;;;;;28.45;22.48;;;;;;;-143.98;100.00;68091.63;6283414;22;20023;-81
2021/04/29 11:33:49;;;;;;;29.25;24.25;;;;;;;-143.98;100.00;68091.63;6278646;22;20449;-84
2021/04/29 11:36:17;;;;;;;27.75;21.85;;;;;;;-143.98;100.00;68091.63;6278846;22;20031;-84
2021/04/29 11:38:56;;;;;;;29.85;24.42;;;;;;;-143.98;100.00;68091.63;6307117;22;20023;-83
2021/04/29 11:41:51;;;;;;;24.40;19.95;;;;;;;-143.98;100.00;68091.63;6281957;22;20124;-84